createdAt,value
2023-01-23T00:02:24.046Z,75.70
2023-01-23T00:05:31.615Z,86.60
2023-01-23T00:08:38.427Z,84.50
2023-01-23T00:11:45.592Z,89.50
2023-01-23T00:14:53.155Z,91.20
2023-01-23T00:17:59.938Z,87.40
2023-01-23T00:21:07.196Z,89.20
2023-01-23T00:24:14.644Z,87.90
2023-01-23T00:27:21.419Z,93.60
2023-01-23T00:30:28.884Z,81.50
2023-01-23T00:33:36.064Z,91.60
2023-01-23T00:36:43.217Z,77.80
2023-01-23T00:39:50.949Z,83.20
2023-01-23T00:42:58.277Z,87.40
2023-01-23T00:46:05.388Z,78.20
2023-01-23T00:49:13.406Z,80.50
2023-01-23T00:52:20.570Z,90.10
2023-01-23T00:55:27.611Z,77.60
2023-01-23T00:58:34.786Z,71.60
2023-01-23T01:01:42.921Z,74.70
2023-01-23T01:04:50.875Z,74.80
2023-01-23T01:07:58.611Z,71.00
2023-01-23T01:11:00.419Z,73.10
2023-01-23T01:14:08.328Z,78.40
2023-01-23T01:17:15.761Z,73.50
2023-01-23T01:20:24.176Z,71.70
2023-01-23T01:23:32.523Z,77.50
2023-01-23T01:26:40.145Z,72.20
2023-01-23T01:29:48.648Z,76.30
2023-01-23T01:32:56.472Z,70.80
2023-01-23T01:36:03.849Z,76.30
2023-01-23T01:39:05.128Z,74.00
2023-01-23T01:42:13.153Z,76.40
2023-01-23T01:45:21.324Z,68.90
2023-01-23T01:48:29.343Z,65.70
2023-01-23T01:51:37.230Z,68.10
2023-01-23T01:54:45.100Z,74.70
2023-01-23T01:57:52.956Z,64.40
2023-01-23T02:01:01.158Z,63.40
2023-01-23T02:04:09.237Z,65.50
2023-01-23T02:07:16.985Z,72.40
2023-01-23T02:10:25.262Z,66.80
2023-01-23T02:13:33.161Z,68.30
2023-01-23T02:16:41.362Z,74.60
2023-01-23T02:19:48.953Z,79.30
2023-01-23T02:22:56.473Z,75.90
2023-01-23T02:26:04.706Z,73.40
2023-01-23T02:29:12.131Z,72.00
2023-01-23T02:32:20.073Z,76.30
2023-01-23T02:35:28.403Z,81.70
2023-01-23T02:38:36.183Z,76.30
2023-01-23T02:41:44.322Z,75.10
2023-01-23T02:44:52.561Z,89.90
2023-01-23T02:47:59.955Z,80.40
2023-01-23T02:51:08.200Z,85.40
2023-01-23T02:54:16.375Z,78.20
2023-01-23T02:57:23.920Z,89.70
2023-01-23T03:00:32.058Z,82.50
2023-01-23T03:03:39.827Z,93.50
2023-01-23T03:06:47.892Z,101.40
2023-01-23T03:09:56.210Z,93.50
2023-01-23T03:13:04.174Z,104.20
2023-01-23T03:16:12.133Z,108.90
2023-01-23T03:19:20.375Z,108.50
2023-01-23T03:22:28.308Z,94.90
2023-01-23T03:25:36.041Z,110.30
2023-01-23T03:28:43.775Z,99.70
2023-01-23T03:31:52.188Z,97.30
2023-01-23T03:35:00.213Z,98.10
2023-01-23T03:38:07.597Z,109.00
2023-01-23T03:41:15.782Z,112.30
2023-01-23T03:44:23.659Z,107.40
2023-01-23T03:47:31.500Z,114.40
2023-01-23T03:50:39.712Z,113.80
2023-01-23T03:53:47.286Z,103.50
2023-01-23T03:56:55.598Z,104.30
2023-01-23T04:00:04.009Z,115.00
2023-01-23T04:03:11.582Z,104.60
2023-01-23T04:06:19.689Z,100.00
2023-01-23T04:09:27.536Z,109.20
2023-01-23T04:12:35.468Z,95.40
2023-01-23T04:15:43.905Z,92.60
2023-01-23T04:18:51.755Z,101.80
2023-01-23T04:21:59.758Z,102.20
2023-01-23T04:25:07.655Z,86.30
2023-01-23T04:28:15.709Z,93.40
2023-01-23T04:31:23.652Z,92.80
2023-01-23T04:34:31.819Z,99.30
2023-01-23T04:37:40.063Z,96.70
2023-01-23T04:40:47.495Z,77.90
2023-01-23T04:43:55.558Z,84.40
2023-01-23T04:47:03.869Z,80.50
2023-01-23T04:50:11.331Z,77.70
2023-01-23T04:53:19.358Z,80.90
2023-01-23T04:56:27.490Z,69.30
2023-01-23T04:59:34.989Z,83.40
2023-01-23T05:02:43.218Z,74.70
2023-01-23T05:05:51.036Z,66.70
2023-01-23T05:08:58.863Z,72.20
2023-01-23T05:12:06.907Z,71.30
2023-01-23T05:15:14.376Z,77.60
2023-01-23T05:18:22.135Z,62.90
2023-01-23T05:21:30.198Z,68.40
2023-01-23T05:24:38.480Z,72.90
2023-01-23T05:27:46.352Z,74.30
2023-01-23T05:30:54.292Z,64.50
2023-01-23T05:34:02.457Z,64.60
2023-01-23T05:37:09.936Z,65.20
2023-01-23T05:40:18.652Z,68.80
2023-01-23T05:43:26.889Z,65.20
2023-01-23T05:46:34.474Z,58.20
2023-01-23T05:49:42.330Z,52.80
2023-01-23T05:52:50.471Z,56.10
2023-01-23T05:55:57.879Z,51.40
2023-01-23T05:59:06.368Z,47.20
2023-01-23T06:02:14.145Z,55.00
2023-01-23T06:05:22.007Z,55.80
2023-01-23T06:08:29.950Z,56.50
2023-01-23T06:11:37.922Z,61.40
2023-01-23T06:14:46.212Z,72.60
2023-01-23T06:17:54.021Z,61.50
2023-01-23T06:21:01.635Z,77.10
2023-01-23T06:24:10.055Z,77.00
2023-01-23T06:27:17.617Z,92.70
2023-01-23T06:30:25.996Z,80.10
2023-01-23T06:33:34.232Z,75.70
2023-01-23T06:36:41.646Z,81.20
2023-01-23T06:39:49.746Z,91.80
2023-01-23T06:42:57.693Z,83.50
2023-01-23T06:46:05.267Z,81.40
2023-01-23T06:49:13.431Z,84.70
2023-01-23T06:52:21.850Z,85.10
2023-01-23T06:55:29.370Z,84.20
2023-01-23T06:58:37.683Z,90.90
2023-01-23T07:01:45.675Z,83.00
2023-01-23T07:04:53.602Z,90.20
2023-01-23T07:08:03.531Z,76.60
2023-01-23T07:11:01.870Z,83.50
2023-01-23T07:14:09.560Z,82.10
2023-01-23T07:17:17.749Z,78.30
2023-01-23T07:20:25.390Z,89.00
2023-01-23T07:23:33.097Z,94.90
2023-01-23T07:26:40.921Z,88.20
2023-01-23T07:29:48.541Z,158.00
2023-01-23T07:32:56.521Z,94.20
2023-01-23T07:36:03.896Z,93.50
2023-01-23T07:39:12.044Z,103.90
2023-01-23T07:42:19.829Z,98.80
2023-01-23T07:45:27.644Z,108.00
2023-01-23T07:48:35.685Z,89.60
2023-01-23T07:51:43.283Z,103.50
2023-01-23T07:54:51.067Z,102.30
2023-01-23T07:57:59.868Z,97.80
2023-01-23T08:01:08.769Z,108.30
2023-01-23T08:04:17.473Z,106.80
2023-01-23T08:07:26.440Z,115.10
2023-01-23T08:10:34.634Z,113.70
2023-01-23T08:13:43.235Z,115.90
2023-01-23T08:16:52.116Z,126.00
2023-01-23T08:20:00.689Z,119.90
2023-01-23T08:23:09.607Z,130.60
2023-01-23T08:26:18.291Z,119.70
2023-01-23T08:29:27.250Z,127.50
2023-01-23T08:32:36.146Z,136.60
2023-01-23T08:35:44.929Z,148.20
2023-01-23T08:38:53.637Z,149.10
2023-01-23T08:42:02.440Z,147.90
2023-01-23T08:45:11.341Z,164.00
2023-01-23T08:48:20.564Z,175.20
2023-01-23T08:51:29.590Z,146.90
2023-01-23T08:54:38.196Z,167.90
2023-01-23T08:57:48.412Z,165.80
2023-01-23T09:00:57.043Z,153.40
2023-01-23T09:04:05.899Z,579.70
2023-01-23T09:07:14.977Z,729.70
2023-01-23T09:10:23.195Z,161.20
2023-01-23T09:13:32.667Z,161.00
2023-01-23T09:16:41.616Z,135.30
2023-01-23T09:19:49.937Z,140.60
2023-01-23T09:22:58.786Z,166.10
2023-01-23T09:26:07.742Z,152.50
2023-01-23T09:29:16.010Z,149.50
2023-01-23T09:32:25.645Z,156.10
2023-01-23T09:35:34.349Z,163.50
2023-01-23T09:38:42.770Z,121.60
2023-01-23T09:41:51.782Z,146.40
2023-01-23T09:45:00.519Z,141.40
2023-01-23T09:48:09.321Z,149.20
2023-01-23T09:51:18.256Z,132.80
2023-01-23T09:54:27.025Z,129.50
2023-01-23T09:57:35.670Z,116.50
2023-01-23T10:00:43.999Z,165.50
2023-01-23T10:03:52.705Z,147.60
2023-01-23T10:07:01.794Z,122.00
2023-01-23T10:10:10.049Z,112.50
2023-01-23T10:13:19.029Z,113.80
2023-01-23T10:16:33.269Z,107.40
2023-01-23T10:19:35.258Z,161.60
2023-01-23T10:22:44.173Z,144.10
2023-01-23T10:25:53.410Z,111.10
2023-01-23T10:29:01.732Z,96.80
2023-01-23T10:32:11.235Z,98.60
2023-01-23T10:35:20.272Z,95.70
2023-01-23T10:38:29.266Z,94.00
2023-01-23T10:41:38.175Z,93.30
2023-01-23T10:44:46.628Z,87.30
2023-01-23T10:47:55.668Z,84.30
2023-01-23T10:51:04.872Z,94.20
2023-01-23T10:54:29.658Z,76.90
2023-01-23T10:57:19.636Z,84.90
2023-01-23T11:00:28.279Z,100.20
2023-01-23T11:03:37.569Z,101.20
2023-01-23T11:06:46.247Z,98.20
2023-01-23T11:09:54.950Z,84.80
2023-01-23T11:13:03.799Z,91.40
2023-01-23T11:16:12.601Z,71.70
2023-01-23T11:19:21.405Z,81.00
2023-01-23T11:22:30.483Z,78.00
2023-01-23T11:25:38.749Z,78.90
2023-01-23T11:28:47.733Z,70.70
2023-01-23T11:31:56.919Z,81.70
2023-01-23T11:35:06.788Z,68.30
2023-01-23T11:38:05.763Z,70.30
2023-01-23T11:41:14.931Z,69.70
2023-01-23T11:44:24.286Z,77.60
2023-01-23T11:47:33.132Z,70.60
2023-01-23T11:50:54.364Z,74.00
2023-01-23T11:53:47.803Z,74.90
2023-01-23T11:56:56.518Z,79.90
2023-01-23T12:00:05.137Z,78.90
2023-01-23T12:03:13.826Z,83.30
2023-01-23T12:06:22.917Z,159.10
2023-01-23T12:09:31.460Z,88.80
2023-01-23T12:12:40.168Z,67.90
2023-01-23T12:15:49.066Z,71.20
2023-01-23T12:18:57.708Z,66.50
2023-01-23T12:22:06.449Z,61.00
2023-01-23T12:25:15.172Z,67.00
2023-01-23T12:28:24.765Z,68.80
2023-01-23T12:31:33.859Z,61.20
2023-01-23T12:34:42.264Z,58.40
2023-01-23T12:37:51.578Z,54.70
2023-01-23T12:41:00.525Z,55.80
2023-01-23T12:44:09.121Z,56.30
2023-01-23T12:47:18.290Z,51.40
2023-01-23T12:50:26.982Z,48.90
2023-01-23T12:53:35.682Z,51.80
2023-01-23T12:56:44.779Z,58.00
2023-01-23T12:59:53.734Z,51.10
2023-01-23T13:03:02.515Z,51.60
2023-01-23T13:06:11.103Z,64.20
2023-01-23T13:09:20.138Z,63.50
2023-01-23T13:12:28.927Z,59.10
2023-01-23T13:15:40.648Z,61.50
2023-01-23T13:18:39.078Z,70.70
2023-01-23T13:21:47.588Z,63.00
2023-01-23T13:24:56.168Z,69.30
2023-01-23T13:28:04.949Z,59.50
2023-01-23T13:31:13.824Z,73.00
2023-01-23T13:34:22.861Z,71.80
2023-01-23T13:37:31.939Z,80.10
2023-01-23T13:40:40.450Z,93.40
2023-01-23T13:43:49.528Z,79.40
2023-01-23T13:46:58.436Z,89.60
2023-01-23T13:50:06.939Z,84.30
2023-01-23T13:53:16.212Z,81.30
2023-01-23T13:56:24.665Z,101.50
2023-01-23T13:59:33.738Z,153.10
2023-01-23T14:02:42.391Z,108.30
2023-01-23T14:05:50.915Z,111.10
2023-01-23T14:09:00.384Z,114.00
2023-01-23T14:12:09.352Z,111.50
2023-01-23T14:15:17.714Z,110.10
2023-01-23T14:18:26.724Z,121.30
2023-01-23T14:21:41.415Z,122.50
2023-01-23T14:24:39.422Z,176.10
2023-01-23T14:27:53.600Z,144.40
2023-01-23T14:30:52.588Z,136.20
2023-01-23T14:34:09.122Z,123.40
2023-01-23T14:37:07.195Z,100.60
2023-01-23T14:40:25.678Z,109.70
2023-01-23T14:43:22.183Z,104.30
2023-01-23T14:46:30.649Z,119.50
2023-01-23T14:49:39.810Z,88.70
2023-01-23T14:52:48.845Z,93.50
2023-01-23T14:55:57.306Z,90.20
2023-01-23T14:59:06.260Z,97.70
2023-01-23T15:02:20.651Z,87.70
2023-01-23T15:05:18.362Z,87.90
2023-01-23T15:08:27.306Z,86.10
2023-01-23T15:11:36.112Z,90.90
2023-01-23T15:14:44.904Z,85.20
2023-01-23T15:17:53.789Z,121.00
2023-01-23T15:21:02.410Z,93.10
2023-01-23T15:24:11.511Z,93.60
2023-01-23T15:27:19.884Z,103.10
2023-01-23T15:30:28.920Z,111.10
2023-01-23T15:33:38.422Z,126.90
2023-01-23T15:36:46.568Z,118.30
2023-01-23T15:39:55.642Z,116.40
2023-01-23T15:43:04.264Z,114.80
2023-01-23T15:46:13.223Z,118.10
2023-01-23T15:49:25.894Z,107.30
2023-01-23T15:52:24.272Z,106.50
2023-01-23T15:55:32.757Z,109.50
2023-01-23T15:58:41.325Z,107.90
2023-01-23T16:01:50.485Z,99.30
2023-01-23T16:04:59.238Z,108.20
2023-01-23T16:08:07.923Z,102.10
2023-01-23T16:11:16.851Z,102.70
2023-01-23T16:14:25.467Z,95.80
2023-01-23T16:17:34.577Z,113.00
2023-01-23T16:20:43.442Z,114.50
2023-01-23T16:23:53.635Z,112.10
2023-01-23T16:27:02.722Z,101.20
2023-01-23T16:30:11.847Z,108.70
2023-01-23T16:33:20.441Z,109.40
2023-01-23T16:36:29.589Z,129.50
2023-01-23T16:39:38.689Z,118.10
2023-01-23T16:42:47.982Z,110.00
2023-01-23T16:45:57.349Z,116.30
2023-01-23T16:49:06.787Z,117.10
2023-01-23T16:52:16.254Z,116.10
2023-01-23T16:55:25.922Z,107.10
2023-01-23T16:58:34.604Z,118.20
2023-01-23T17:01:42.877Z,115.10
2023-01-23T17:04:52.280Z,113.30
2023-01-23T17:08:01.056Z,120.30
2023-01-23T17:11:09.945Z,126.10
2023-01-23T17:14:18.574Z,115.40
2023-01-23T17:17:27.908Z,132.10
2023-01-23T17:20:36.770Z,121.60
2023-01-23T17:23:36.511Z,108.40
2023-01-23T17:26:45.139Z,117.10
2023-01-23T17:29:53.600Z,119.30
2023-01-23T17:33:02.702Z,117.00
2023-01-23T17:36:11.455Z,129.20
2023-01-23T17:39:20.673Z,117.50
2023-01-23T17:42:30.769Z,117.60
2023-01-23T17:45:39.163Z,109.70
2023-01-23T17:48:48.471Z,100.60
2023-01-23T17:51:57.259Z,108.10
2023-01-23T17:55:05.515Z,101.10
2023-01-23T17:58:14.106Z,104.00
2023-01-23T18:01:23.162Z,103.40
2023-01-23T18:04:32.048Z,101.80
2023-01-23T18:07:53.072Z,95.60
2023-01-23T18:10:47.198Z,96.80
2023-01-23T18:13:55.862Z,103.20
2023-01-23T18:17:04.500Z,102.10
2023-01-23T18:20:13.741Z,85.80
2023-01-23T18:23:22.129Z,86.90
2023-01-23T18:26:30.591Z,94.70
2023-01-23T18:29:39.359Z,100.80
2023-01-23T18:32:48.583Z,97.90
2023-01-23T18:35:57.132Z,108.60
2023-01-23T18:39:05.930Z,112.30
2023-01-23T18:42:15.247Z,124.40
2023-01-23T18:45:27.582Z,116.60
2023-01-23T18:48:26.131Z,126.60
2023-01-23T18:51:34.443Z,119.30
2023-01-23T18:54:42.864Z,121.90
2023-01-23T18:57:51.726Z,125.80
2023-01-23T19:00:59.974Z,123.40
2023-01-23T19:04:08.657Z,123.50
2023-01-23T19:07:17.403Z,124.90
2023-01-23T19:10:27.075Z,136.70
2023-01-23T19:13:35.397Z,112.30
2023-01-23T19:16:44.928Z,143.90
2023-01-23T19:19:55.456Z,116.40
2023-01-23T19:23:03.636Z,134.80
2023-01-23T19:26:13.249Z,133.80
2023-01-23T19:29:23.128Z,193.20
2023-01-23T19:32:21.976Z,149.50
2023-01-23T19:35:31.655Z,140.30
2023-01-23T19:38:41.052Z,152.60
2023-01-23T19:41:50.448Z,145.50
2023-01-23T19:45:00.468Z,152.80
2023-01-23T19:48:08.693Z,150.80
2023-01-23T19:51:18.042Z,151.70
2023-01-23T19:54:28.310Z,146.70
2023-01-23T19:57:27.081Z,151.00
2023-01-23T20:00:36.907Z,165.10
2023-01-23T20:03:45.772Z,147.20
2023-01-23T20:06:54.044Z,158.60
2023-01-23T20:10:02.778Z,148.40
2023-01-23T20:13:12.680Z,157.30
2023-01-23T20:16:21.795Z,170.40
2023-01-23T20:19:30.281Z,178.70
2023-01-23T20:22:39.293Z,179.00
2023-01-23T20:25:48.267Z,181.10
2023-01-23T20:28:56.704Z,186.90
2023-01-23T20:32:05.866Z,195.70
2023-01-23T20:35:14.451Z,200.80
2023-01-23T20:38:23.003Z,180.60
2023-01-23T20:41:31.523Z,170.80
2023-01-23T20:44:40.861Z,154.00
2023-01-23T20:47:50.168Z,181.60
2023-01-23T20:50:59.028Z,157.80
2023-01-23T20:54:07.470Z,159.30
2023-01-23T20:57:15.973Z,163.60
2023-01-23T21:00:24.918Z,154.90
2023-01-23T21:03:33.300Z,149.30
2023-01-23T21:06:42.368Z,151.20
2023-01-23T21:09:50.922Z,163.00
2023-01-23T21:12:59.754Z,153.70
2023-01-23T21:16:08.454Z,148.90
2023-01-23T21:19:17.012Z,151.00
2023-01-23T21:22:25.983Z,145.30
2023-01-23T21:25:34.481Z,162.70
2023-01-23T21:28:43.127Z,157.50
2023-01-23T21:31:52.219Z,134.60
2023-01-23T21:35:00.474Z,166.30
2023-01-23T21:38:09.798Z,142.40
2023-01-23T21:41:18.983Z,143.60
2023-01-23T21:44:27.316Z,169.50
2023-01-23T21:47:36.462Z,157.50
2023-01-23T21:50:45.667Z,136.60
2023-01-23T21:53:54.108Z,143.60
2023-01-23T21:57:03.243Z,150.10
2023-01-23T22:00:13.751Z,140.60
2023-01-23T22:03:22.474Z,147.00
2023-01-23T22:06:31.341Z,144.70
2023-01-23T22:09:41.263Z,152.10
2023-01-23T22:12:49.925Z,132.60
2023-01-23T22:15:58.479Z,135.10
2023-01-23T22:19:07.277Z,126.40
2023-01-23T22:22:16.392Z,148.50
2023-01-23T22:25:24.893Z,132.80
2023-01-23T22:28:33.390Z,139.10
2023-01-23T22:31:42.196Z,150.90
2023-01-23T22:34:50.810Z,148.20
2023-01-23T22:37:59.594Z,126.20
2023-01-23T22:41:08.562Z,152.20
2023-01-23T22:44:17.016Z,129.40
2023-01-23T22:47:25.972Z,136.60
2023-01-23T22:50:35.173Z,163.50
2023-01-23T22:53:43.505Z,137.00
2023-01-23T22:56:52.561Z,120.30
2023-01-23T23:00:01.866Z,119.30
2023-01-23T23:03:10.274Z,133.50
2023-01-23T23:06:19.511Z,123.70
2023-01-23T23:09:28.587Z,153.80
2023-01-23T23:12:36.929Z,123.20
2023-01-23T23:15:45.892Z,128.00
2023-01-23T23:18:54.669Z,111.80
2023-01-23T23:22:03.274Z,123.60
2023-01-23T23:25:12.275Z,104.80
2023-01-23T23:28:21.019Z,111.10
2023-01-23T23:31:29.807Z,112.60
2023-01-23T23:34:39.076Z,106.20
2023-01-23T23:37:47.699Z,116.70
2023-01-23T23:40:56.527Z,99.80
2023-01-23T23:44:05.364Z,110.40
2023-01-23T23:47:14.216Z,108.20
2023-01-23T23:50:22.697Z,95.00
2023-01-23T23:53:31.277Z,102.60
2023-01-23T23:56:40.330Z,111.70
2023-01-23T23:59:48.576Z,120.90
